createdAt,value
2024-01-22T00:01:08.246Z,4.30
2024-01-22T00:03:37.905Z,4.19
2024-01-22T00:06:07.942Z,4.09
2024-01-22T00:08:37.560Z,3.96
2024-01-22T00:11:07.532Z,3.94
2024-01-22T00:13:37.147Z,3.98
2024-01-22T00:16:09.866Z,3.97
2024-01-22T00:18:40.555Z,3.97
2024-01-22T00:21:10.253Z,3.99
2024-01-22T00:23:39.862Z,4.07
2024-01-22T00:26:13.578Z,4.11
2024-01-22T00:28:43.516Z,4.10
2024-01-22T00:31:16.075Z,4.09
2024-01-22T00:33:46.126Z,4.13
2024-01-22T00:36:16.390Z,4.17
2024-01-22T00:38:46.147Z,4.17
2024-01-22T00:41:15.750Z,4.17
2024-01-22T00:43:45.376Z,4.18
2024-01-22T00:46:17.632Z,4.12
2024-01-22T00:48:47.288Z,4.16
2024-01-22T00:51:17.025Z,4.16
2024-01-22T00:53:46.795Z,4.16
2024-01-22T00:56:16.475Z,4.15
2024-01-22T00:58:46.063Z,4.12
2024-01-22T01:01:18.241Z,4.14
2024-01-22T01:03:48.003Z,4.07
2024-01-22T01:06:17.669Z,4.05
2024-01-22T01:08:47.354Z,4.01
2024-01-22T01:11:17.064Z,4.02
2024-01-22T01:13:46.766Z,4.10
2024-01-22T01:16:18.872Z,4.13
2024-01-22T01:18:48.552Z,4.17
2024-01-22T01:21:18.498Z,4.15
2024-01-22T01:23:48.162Z,4.16
2024-01-22T01:26:17.727Z,4.10
2024-01-22T01:28:47.301Z,4.25
2024-01-22T01:31:19.674Z,4.30
2024-01-22T01:33:49.491Z,4.33
2024-01-22T01:36:19.404Z,4.39
2024-01-22T01:38:49.045Z,4.38
2024-01-22T01:41:18.665Z,4.46
2024-01-22T01:43:48.399Z,4.50
2024-01-22T01:46:20.537Z,4.51
2024-01-22T01:48:50.356Z,4.52
2024-01-22T01:51:20.235Z,4.51
2024-01-22T01:53:50.360Z,4.61
2024-01-22T01:56:20.062Z,4.62
2024-01-22T01:58:49.962Z,4.66
2024-01-22T02:01:22.322Z,4.67
2024-01-22T02:03:52.071Z,4.63
2024-01-22T02:06:21.798Z,4.64
2024-01-22T02:08:54.679Z,4.72
2024-01-22T02:11:24.872Z,4.79
2024-01-22T02:13:54.497Z,4.78
2024-01-22T02:16:26.613Z,4.78
2024-01-22T02:18:56.317Z,4.78
2024-01-22T02:21:26.229Z,4.70
2024-01-22T02:23:58.440Z,4.74
2024-01-22T02:26:28.080Z,4.72
2024-01-22T02:28:57.645Z,4.73
2024-01-22T02:31:27.278Z,4.77
2024-01-22T02:33:56.945Z,4.85
2024-01-22T02:36:26.608Z,4.83
2024-01-22T02:38:58.913Z,4.84
2024-01-22T02:41:28.523Z,4.87
2024-01-22T02:43:58.096Z,4.89
2024-01-22T02:46:27.740Z,4.93
2024-01-22T02:48:57.543Z,4.94
2024-01-22T02:51:27.328Z,4.95
2024-01-22T02:54:00.269Z,4.95
2024-01-22T02:56:30.043Z,4.98
2024-01-22T02:58:59.753Z,5.00
2024-01-22T03:01:29.492Z,4.98
2024-01-22T03:03:59.425Z,5.01
2024-01-22T03:06:29.082Z,4.96
2024-01-22T03:09:01.337Z,4.93
2024-01-22T03:11:30.922Z,4.99
2024-01-22T03:14:00.529Z,4.99
2024-01-22T03:16:30.125Z,4.99
2024-01-22T03:19:00.627Z,5.04
2024-01-22T03:21:30.300Z,5.05
2024-01-22T03:24:02.482Z,5.05
2024-01-22T03:26:32.035Z,5.07
2024-01-22T03:29:01.645Z,5.09
2024-01-22T03:31:33.954Z,5.08
2024-01-22T03:34:03.791Z,5.11
2024-01-22T03:36:33.710Z,5.18
2024-01-22T03:39:05.863Z,5.19
2024-01-22T03:41:35.701Z,5.23
2024-01-22T03:44:06.641Z,5.23
2024-01-22T03:46:36.673Z,5.25
2024-01-22T03:49:06.484Z,5.34
2024-01-22T03:51:36.187Z,5.38
2024-01-22T03:54:08.506Z,5.32
2024-01-22T03:56:38.908Z,5.34
2024-01-22T03:59:08.565Z,5.36
2024-01-22T04:01:38.167Z,5.36
2024-01-22T04:04:08.295Z,5.23
2024-01-22T04:06:38.024Z,5.19
2024-01-22T04:09:11.975Z,5.24
2024-01-22T04:11:42.417Z,5.22
2024-01-22T04:14:12.013Z,5.21
2024-01-22T04:16:42.077Z,5.18
2024-01-22T04:19:12.249Z,5.10
2024-01-22T04:21:48.445Z,5.12
2024-01-22T04:24:20.631Z,5.17
2024-01-22T04:26:50.282Z,5.22
2024-01-22T04:29:19.903Z,5.30
2024-01-22T04:31:49.541Z,5.35
2024-01-22T04:34:19.382Z,5.33
2024-01-22T04:36:49.056Z,5.32
2024-01-22T04:39:21.305Z,5.36
2024-01-22T04:41:51.209Z,5.31
2024-01-22T04:44:20.887Z,5.30
2024-01-22T04:46:50.453Z,5.26
2024-01-22T04:49:20.181Z,5.23
2024-01-22T04:51:49.794Z,5.20
2024-01-22T04:54:22.099Z,5.20
2024-01-22T04:56:52.000Z,5.22
2024-01-22T04:59:21.639Z,5.23
2024-01-22T05:01:51.266Z,5.31
2024-01-22T05:04:20.873Z,5.31
2024-01-22T05:06:50.496Z,5.27
2024-01-22T05:09:22.802Z,5.31
2024-01-22T05:11:52.469Z,5.35
2024-01-22T05:14:22.052Z,5.46
2024-01-22T05:16:51.617Z,5.42
2024-01-22T05:19:21.295Z,5.45
2024-01-22T05:21:51.566Z,5.61
2024-01-22T05:24:23.766Z,5.61
2024-01-22T05:26:53.439Z,5.63
2024-01-22T05:29:23.046Z,5.68
2024-01-22T05:31:53.875Z,5.76
2024-01-22T05:34:23.591Z,5.90
2024-01-22T05:36:53.280Z,6.04
2024-01-22T05:39:25.522Z,6.10
2024-01-22T05:41:55.203Z,6.12
2024-01-22T05:44:25.589Z,6.23
2024-01-22T05:46:55.165Z,6.28
2024-01-22T05:49:27.858Z,6.32
2024-01-22T05:51:59.890Z,6.36
2024-01-22T05:54:32.005Z,6.40
2024-01-22T05:57:01.673Z,6.40
2024-01-22T05:59:31.280Z,6.46
2024-01-22T06:02:00.902Z,6.44
2024-01-22T06:04:30.472Z,6.56
2024-01-22T06:07:03.268Z,6.64
2024-01-22T06:09:39.000Z,6.61
2024-01-22T06:12:10.113Z,6.70
2024-01-22T06:14:39.791Z,6.88
2024-01-22T06:17:10.967Z,6.93
2024-01-22T06:19:42.085Z,6.87
2024-01-22T06:22:12.062Z,6.95
2024-01-22T06:24:44.287Z,6.94
2024-01-22T06:27:13.890Z,7.10
2024-01-22T06:29:43.523Z,7.14
2024-01-22T06:32:13.178Z,7.18
2024-01-22T06:34:43.008Z,7.29
2024-01-22T06:37:12.688Z,7.40
2024-01-22T06:39:44.979Z,7.45
2024-01-22T06:42:23.148Z,7.39
2024-01-22T06:45:00.833Z,7.41
2024-01-22T06:47:31.454Z,7.38
2024-01-22T06:50:01.225Z,7.39
2024-01-22T06:52:30.883Z,7.49
2024-01-22T06:55:03.976Z,7.53
2024-01-22T06:57:33.577Z,7.61
2024-01-22T07:00:08.403Z,7.60
2024-01-22T07:02:39.320Z,7.62
2024-01-22T07:05:10.069Z,7.64
2024-01-22T07:07:39.770Z,7.66
2024-01-22T07:10:12.784Z,7.82
2024-01-22T07:12:43.176Z,7.93
2024-01-22T07:15:14.592Z,7.99
2024-01-22T07:17:46.168Z,7.93
2024-01-22T07:20:17.328Z,7.92
2024-01-22T07:22:49.131Z,8.00
2024-01-22T07:25:21.525Z,8.08
2024-01-22T07:27:51.231Z,8.12
2024-01-22T07:30:21.024Z,8.11
2024-01-22T07:32:50.824Z,8.10
2024-01-22T07:35:20.562Z,8.10
2024-01-22T07:37:50.170Z,8.16
2024-01-22T07:40:22.363Z,8.13
2024-01-22T07:42:51.980Z,8.16
2024-01-22T07:45:21.554Z,8.21
2024-01-22T07:47:51.307Z,8.29
2024-01-22T07:50:21.484Z,8.34
2024-01-22T07:52:51.070Z,8.42
2024-01-22T07:55:23.243Z,8.53
2024-01-22T07:57:52.877Z,8.37
2024-01-22T08:00:23.085Z,8.14
2024-01-22T08:02:52.893Z,8.10
2024-01-22T08:05:22.495Z,8.08
2024-01-22T08:07:52.080Z,8.11
2024-01-22T08:10:24.292Z,8.10
2024-01-22T08:12:53.948Z,8.12
2024-01-22T08:15:23.864Z,8.11
2024-01-22T08:17:53.541Z,8.12
2024-01-22T08:20:23.192Z,8.08
2024-01-22T08:22:52.825Z,8.02
2024-01-22T08:25:29.281Z,7.96
2024-01-22T08:27:59.519Z,7.93
2024-01-22T08:30:29.282Z,7.95
2024-01-22T08:32:59.703Z,7.89
2024-01-22T08:35:29.631Z,7.84
2024-01-22T08:37:59.373Z,7.81
2024-01-22T08:40:32.354Z,7.81
2024-01-22T08:43:01.945Z,7.80
2024-01-22T08:45:31.590Z,7.75
2024-01-22T08:48:01.328Z,7.75
2024-01-22T08:50:31.137Z,7.74
2024-01-22T08:53:00.748Z,7.73
2024-01-22T08:55:32.968Z,7.77
2024-01-22T08:58:02.602Z,7.82
2024-01-22T09:00:32.301Z,7.93
2024-01-22T09:03:01.970Z,7.98
2024-01-22T09:05:31.747Z,8.05
2024-01-22T09:08:01.532Z,8.09
2024-01-22T09:10:33.822Z,8.09
2024-01-22T09:13:04.448Z,8.09
2024-01-22T09:15:34.200Z,8.11
2024-01-22T09:18:04.455Z,8.16
2024-01-22T09:20:34.500Z,8.17
2024-01-22T09:23:04.972Z,8.17
2024-01-22T09:25:37.474Z,8.33
2024-01-22T09:28:08.262Z,8.30
2024-01-22T09:30:37.885Z,8.31
2024-01-22T09:33:08.383Z,8.38
2024-01-22T09:35:38.079Z,8.33
2024-01-22T09:38:08.139Z,8.30
2024-01-22T09:40:40.301Z,8.26
2024-01-22T09:43:11.572Z,8.18
2024-01-22T09:45:41.217Z,8.18
2024-01-22T09:48:12.590Z,8.17
2024-01-22T09:50:42.483Z,8.09
2024-01-22T09:53:13.740Z,8.05
2024-01-22T09:55:46.186Z,8.02
2024-01-22T09:58:20.426Z,7.95
2024-01-22T10:00:51.074Z,7.79
2024-01-22T10:03:20.778Z,7.74
2024-01-22T10:05:52.760Z,7.70
2024-01-22T10:08:22.513Z,7.67
2024-01-22T10:10:54.671Z,7.65
2024-01-22T10:13:24.789Z,7.65
2024-01-22T10:15:54.428Z,7.63
2024-01-22T10:18:24.121Z,7.64
2024-01-22T10:20:54.211Z,7.63
2024-01-22T10:23:23.833Z,7.63
2024-01-22T10:26:10.816Z,7.59
2024-01-22T10:28:40.410Z,7.51
2024-01-22T10:31:13.095Z,7.40
2024-01-22T10:33:43.086Z,7.44
2024-01-22T10:36:20.934Z,7.52
2024-01-22T10:38:51.552Z,7.55
2024-01-22T10:41:24.817Z,7.50
2024-01-22T10:43:54.400Z,7.48
2024-01-22T10:46:26.097Z,7.42
2024-01-22T10:48:56.786Z,7.39
2024-01-22T10:51:27.303Z,7.35
2024-01-22T10:53:57.142Z,7.28
2024-01-22T10:56:32.068Z,7.27
2024-01-22T10:59:04.448Z,7.23
2024-01-22T11:01:38.241Z,7.23
2024-01-22T11:04:08.829Z,7.25
2024-01-22T11:06:40.486Z,7.24
2024-01-22T11:09:13.567Z,7.21
2024-01-22T11:11:47.054Z,7.23
2024-01-22T11:14:17.038Z,7.22
2024-01-22T11:16:46.692Z,7.21
2024-01-22T11:19:24.103Z,7.22
2024-01-22T11:21:55.429Z,7.21
2024-01-22T11:24:26.475Z,7.22
2024-01-22T11:27:11.142Z,7.24
2024-01-22T11:29:40.863Z,7.28
2024-01-22T11:32:29.330Z,7.37
2024-01-22T11:35:08.372Z,7.45
2024-01-22T11:37:44.960Z,7.47
2024-01-22T11:40:17.542Z,7.47
2024-01-22T11:42:50.093Z,7.49
2024-01-22T11:45:22.967Z,7.50
2024-01-22T11:47:55.419Z,7.53
2024-01-22T11:50:25.268Z,7.52
2024-01-22T11:52:54.885Z,7.53
2024-01-22T11:55:24.673Z,7.49
2024-01-22T11:57:58.598Z,7.46
2024-01-22T12:00:28.385Z,7.39
2024-01-22T12:03:00.649Z,7.35
2024-01-22T12:05:30.239Z,7.29
2024-01-22T12:08:01.022Z,7.31
2024-01-22T12:10:32.221Z,7.34
2024-01-22T12:13:06.735Z,7.39
2024-01-22T12:15:37.134Z,7.38
2024-01-22T12:18:08.775Z,7.39
2024-01-22T12:20:38.452Z,7.40
2024-01-22T12:23:10.444Z,7.40
2024-01-22T12:25:41.970Z,7.43
2024-01-22T12:28:16.766Z,7.51
2024-01-22T12:30:48.790Z,7.60
2024-01-22T12:33:27.357Z,7.49
2024-01-22T12:36:11.644Z,7.50
2024-01-22T12:38:51.826Z,7.60
2024-01-22T12:41:22.232Z,7.54
2024-01-22T12:43:58.942Z,7.52
2024-01-22T12:46:29.564Z,7.51
2024-01-22T12:49:00.220Z,7.50
2024-01-22T12:51:30.679Z,7.52
2024-01-22T12:54:00.414Z,7.50
2024-01-22T12:56:30.155Z,7.52
2024-01-22T12:59:02.373Z,7.53
2024-01-22T13:01:32.089Z,7.59
2024-01-22T13:04:02.029Z,7.57
2024-01-22T13:06:31.897Z,7.55
2024-01-22T13:09:01.635Z,7.57
2024-01-22T13:11:32.608Z,7.64
2024-01-22T13:14:06.098Z,7.64
2024-01-22T13:16:35.887Z,7.62
2024-01-22T13:19:05.716Z,7.59
2024-01-22T13:21:35.439Z,7.70
2024-01-22T13:24:05.484Z,8.01
2024-01-22T13:26:38.328Z,8.02
2024-01-22T13:29:11.157Z,7.96
2024-01-22T13:31:40.807Z,7.83
2024-01-22T13:34:10.738Z,7.72
2024-01-22T13:36:40.419Z,7.69
2024-01-22T13:39:10.687Z,7.69
2024-01-22T13:41:40.340Z,7.67
2024-01-22T13:44:18.477Z,7.65
2024-01-22T13:46:48.158Z,7.64
2024-01-22T13:49:18.393Z,7.62
2024-01-22T13:51:48.094Z,7.63
2024-01-22T13:54:18.092Z,7.61
2024-01-22T13:56:47.744Z,7.63
2024-01-22T13:59:19.974Z,7.59
2024-01-22T14:01:49.644Z,7.56
2024-01-22T14:04:19.278Z,7.60
2024-01-22T14:06:49.048Z,7.56
2024-01-22T14:09:19.286Z,7.52
2024-01-22T14:11:49.018Z,7.52
2024-01-22T14:14:25.962Z,7.48
2024-01-22T14:16:58.798Z,7.47
2024-01-22T14:19:28.906Z,7.43
2024-01-22T14:21:58.652Z,7.43
2024-01-22T14:24:28.861Z,7.47
2024-01-22T14:26:58.704Z,7.55
2024-01-22T14:29:32.452Z,7.62
2024-01-22T14:32:02.264Z,7.61
2024-01-22T14:34:32.043Z,7.56
2024-01-22T14:37:03.915Z,7.55
2024-01-22T14:39:33.944Z,7.64
2024-01-22T14:42:05.301Z,7.65
2024-01-22T14:44:37.502Z,7.67
2024-01-22T14:47:07.952Z,7.62
2024-01-22T14:49:37.568Z,7.60
2024-01-22T14:52:07.874Z,7.61
2024-01-22T14:54:37.481Z,7.57
2024-01-22T14:57:07.270Z,7.55
2024-01-22T14:59:42.200Z,7.59
2024-01-22T15:02:11.883Z,7.60
2024-01-22T15:04:42.832Z,7.99
2024-01-22T15:07:12.500Z,7.89
2024-01-22T15:09:42.412Z,7.72
2024-01-22T15:12:12.647Z,7.65
2024-01-22T15:14:44.947Z,7.56
2024-01-22T15:17:14.634Z,7.46
2024-01-22T15:19:44.693Z,7.34
2024-01-22T15:22:14.334Z,7.40
2024-01-22T15:24:44.365Z,7.57
2024-01-22T15:27:13.970Z,7.56
2024-01-22T15:29:46.324Z,7.61
2024-01-22T15:32:16.757Z,7.45
2024-01-22T15:34:47.015Z,7.51
2024-01-22T15:37:17.596Z,7.51
2024-01-22T15:39:48.272Z,7.48
2024-01-22T15:42:18.388Z,7.33
2024-01-22T15:44:52.807Z,7.19
2024-01-22T15:47:22.804Z,7.11
2024-01-22T15:49:52.469Z,7.02
2024-01-22T15:52:22.188Z,7.01
2024-01-22T15:54:52.004Z,7.07
2024-01-22T15:57:21.690Z,7.09
2024-01-22T15:59:53.992Z,7.09
2024-01-22T16:02:24.165Z,7.07
2024-01-22T16:04:54.149Z,7.13
2024-01-22T16:07:23.985Z,7.05
2024-01-22T16:09:53.906Z,7.07
2024-01-22T16:12:23.553Z,7.03
2024-01-22T16:14:56.102Z,7.01
2024-01-22T16:17:26.154Z,7.03
2024-01-22T16:19:56.054Z,6.94
2024-01-22T16:22:25.759Z,6.95
2024-01-22T16:24:55.384Z,6.96
2024-01-22T16:27:25.050Z,6.90
2024-01-22T16:29:57.389Z,6.88
2024-01-22T16:32:28.027Z,6.87
2024-01-22T16:34:57.680Z,6.87
2024-01-22T16:37:27.718Z,6.84
2024-01-22T16:39:58.810Z,6.85
2024-01-22T16:42:28.501Z,6.84
2024-01-22T16:45:00.897Z,6.83
2024-01-22T16:47:30.568Z,6.81
2024-01-22T16:50:00.364Z,6.79
2024-01-22T16:52:30.053Z,6.81
2024-01-22T16:54:59.649Z,6.80
2024-01-22T16:57:29.446Z,6.78
2024-01-22T17:00:01.737Z,6.82
2024-01-22T17:02:31.368Z,6.84
2024-01-22T17:05:01.126Z,6.77
2024-01-22T17:07:30.872Z,6.78
2024-01-22T17:10:00.517Z,6.78
2024-01-22T17:12:30.449Z,6.76
2024-01-22T17:15:02.960Z,6.69
2024-01-22T17:17:32.716Z,6.64
2024-01-22T17:20:02.397Z,6.61
2024-01-22T17:22:32.235Z,6.57
2024-01-22T17:25:01.854Z,6.58
2024-01-22T17:27:31.767Z,6.54
2024-01-22T17:30:04.142Z,6.59
2024-01-22T17:32:34.113Z,6.56
2024-01-22T17:35:04.854Z,6.54
2024-01-22T17:37:34.497Z,6.60
2024-01-22T17:40:04.129Z,6.58
2024-01-22T17:42:33.827Z,6.62
2024-01-22T17:45:06.219Z,6.53
2024-01-22T17:47:35.855Z,6.45
2024-01-22T17:50:05.648Z,6.43
2024-01-22T17:52:35.226Z,6.43
2024-01-22T17:55:04.842Z,6.43
2024-01-22T17:57:34.449Z,6.35
2024-01-22T18:00:08.176Z,6.28
2024-01-22T18:02:37.765Z,6.27
2024-01-22T18:05:08.088Z,6.26
2024-01-22T18:07:37.681Z,6.29
2024-01-22T18:10:08.358Z,6.31
2024-01-22T18:12:38.017Z,6.26
2024-01-22T18:15:11.018Z,6.22
2024-01-22T18:17:40.801Z,6.28
2024-01-22T18:20:11.335Z,6.30
2024-01-22T18:22:42.843Z,6.32
2024-01-22T18:25:13.454Z,6.38
2024-01-22T18:27:43.030Z,6.41
2024-01-22T18:30:15.989Z,6.40
2024-01-22T18:32:45.722Z,6.44
2024-01-22T18:35:15.517Z,6.47
2024-01-22T18:37:45.106Z,6.51
2024-01-22T18:40:15.358Z,6.52
2024-01-22T18:42:44.890Z,6.48
2024-01-22T18:45:17.160Z,6.46
2024-01-22T18:47:46.862Z,6.51
2024-01-22T18:50:17.301Z,6.56
2024-01-22T18:52:47.739Z,6.54
2024-01-22T18:55:17.839Z,6.57
2024-01-22T18:57:47.416Z,6.53
2024-01-22T19:00:20.784Z,6.55
2024-01-22T19:02:51.817Z,6.58
2024-01-22T19:05:22.008Z,6.55
2024-01-22T19:07:52.366Z,6.54
2024-01-22T19:10:21.947Z,6.55
2024-01-22T19:12:51.602Z,6.54
2024-01-22T19:15:23.933Z,6.50
2024-01-22T19:17:53.854Z,6.53
2024-01-22T19:20:25.753Z,6.56
2024-01-22T19:22:57.177Z,6.55
2024-01-22T19:25:26.744Z,6.54
2024-01-22T19:27:56.305Z,6.49
2024-01-22T19:30:28.545Z,6.49
2024-01-22T19:32:59.819Z,6.50
2024-01-22T19:35:29.711Z,6.43
2024-01-22T19:37:59.296Z,6.44
2024-01-22T19:40:30.298Z,6.48
2024-01-22T19:43:01.115Z,6.45
2024-01-22T19:45:33.432Z,6.49
2024-01-22T19:48:03.416Z,6.43
2024-01-22T19:50:33.004Z,6.40
2024-01-22T19:53:02.727Z,6.41
2024-01-22T19:55:32.262Z,6.38
2024-01-22T19:58:02.159Z,6.34
2024-01-22T20:00:34.584Z,6.38
2024-01-22T20:03:04.261Z,6.38
2024-01-22T20:05:33.949Z,6.33
2024-01-22T20:08:03.936Z,6.31
2024-01-22T20:10:33.522Z,6.31
2024-01-22T20:13:03.155Z,6.29
2024-01-22T20:15:35.333Z,6.26
2024-01-22T20:18:05.081Z,6.26
2024-01-22T20:20:34.710Z,6.20
2024-01-22T20:23:04.409Z,6.18
2024-01-22T20:25:34.047Z,6.18
2024-01-22T20:28:03.668Z,6.17
2024-01-22T20:30:35.929Z,6.14
2024-01-22T20:33:06.591Z,6.17
2024-01-22T20:35:36.562Z,6.19
2024-01-22T20:38:06.540Z,6.12
2024-01-22T20:40:36.162Z,6.12
2024-01-22T20:43:05.865Z,6.11
2024-01-22T20:45:38.077Z,6.14
2024-01-22T20:48:08.443Z,6.10
2024-01-22T20:50:38.149Z,6.14
2024-01-22T20:53:07.793Z,6.15
2024-01-22T20:55:38.901Z,6.08
2024-01-22T20:58:08.819Z,6.04
2024-01-22T21:00:41.537Z,6.07
2024-01-22T21:03:11.350Z,5.98
2024-01-22T21:05:41.035Z,5.97
2024-01-22T21:08:11.105Z,6.00
2024-01-22T21:10:40.930Z,6.02
2024-01-22T21:13:10.582Z,6.00
2024-01-22T21:15:43.285Z,6.04
2024-01-22T21:18:13.039Z,6.06
2024-01-22T21:20:42.741Z,6.10
2024-01-22T21:23:12.600Z,6.10
2024-01-22T21:25:42.282Z,6.07
2024-01-22T21:28:11.954Z,6.10
2024-01-22T21:30:44.808Z,6.13
2024-01-22T21:33:16.376Z,6.08
2024-01-22T21:35:47.397Z,6.09
2024-01-22T21:38:16.960Z,6.14
2024-01-22T21:40:46.592Z,6.13
2024-01-22T21:43:16.335Z,6.14
2024-01-22T21:45:48.474Z,6.13
2024-01-22T21:48:18.150Z,6.11
2024-01-22T21:50:49.323Z,6.12
2024-01-22T21:53:19.311Z,6.08
2024-01-22T21:55:50.533Z,6.10
2024-01-22T21:58:20.452Z,6.06
2024-01-22T22:00:53.019Z,6.01
2024-01-22T22:03:24.902Z,6.05
2024-01-22T22:05:56.010Z,6.08
2024-01-22T22:08:26.301Z,6.10
2024-01-22T22:10:57.864Z,6.03
2024-01-22T22:13:27.571Z,6.02
2024-01-22T22:15:59.813Z,6.01
2024-01-22T22:18:29.689Z,6.04
2024-01-22T22:20:59.418Z,6.05
2024-01-22T22:23:29.370Z,6.04
2024-01-22T22:25:58.986Z,6.02
2024-01-22T22:28:28.601Z,6.04
2024-01-22T22:31:00.737Z,6.01
2024-01-22T22:33:30.558Z,6.00
2024-01-22T22:36:00.308Z,6.02
2024-01-22T22:38:29.920Z,6.01
2024-01-22T22:40:59.458Z,5.94
2024-01-22T22:43:29.916Z,6.01
2024-01-22T22:46:02.128Z,5.99
2024-01-22T22:48:31.788Z,5.93
2024-01-22T22:51:01.579Z,5.97
2024-01-22T22:53:31.212Z,5.97
2024-01-22T22:56:00.991Z,5.98
2024-01-22T22:58:30.607Z,5.94
2024-01-22T23:01:02.842Z,5.94
2024-01-22T23:03:32.473Z,5.93
2024-01-22T23:06:02.169Z,5.92
2024-01-22T23:08:32.268Z,5.93
2024-01-22T23:11:01.881Z,5.98
2024-01-22T23:13:31.493Z,5.99
2024-01-22T23:16:04.480Z,5.98
2024-01-22T23:18:35.020Z,6.02
2024-01-22T23:21:04.708Z,6.01
2024-01-22T23:23:34.256Z,5.98
2024-01-22T23:26:03.931Z,5.98
2024-01-22T23:28:33.591Z,6.04
2024-01-22T23:31:06.354Z,6.01
2024-01-22T23:33:42.155Z,6.03
2024-01-22T23:36:14.960Z,6.04
2024-01-22T23:38:44.746Z,6.10
2024-01-22T23:41:14.581Z,6.08
2024-01-22T23:43:44.144Z,6.10
2024-01-22T23:46:19.772Z,6.07
2024-01-22T23:48:49.600Z,6.08
2024-01-22T23:51:19.335Z,6.08
2024-01-22T23:53:48.919Z,6.06
2024-01-22T23:56:18.911Z,6.04
2024-01-22T23:58:48.738Z,6.11
